createdAt,value
2023-05-19T00:00:49.004Z,4.17
2023-05-19T00:04:07.904Z,3.70
2023-05-19T00:07:12.441Z,3.40
2023-05-19T00:10:17.379Z,3.43
2023-05-19T00:13:22.625Z,3.60
2023-05-19T00:16:29.468Z,3.50
2023-05-19T00:19:34.061Z,3.53
2023-05-19T00:22:38.148Z,2.90
2023-05-19T00:25:42.380Z,3.70
2023-05-19T00:28:46.786Z,5.10
2023-05-19T00:31:51.190Z,3.13
2023-05-19T00:34:55.229Z,3.65
2023-05-19T00:37:59.281Z,3.20
2023-05-19T00:41:05.303Z,3.13
2023-05-19T00:44:09.692Z,3.45
2023-05-19T00:47:13.730Z,3.13
2023-05-19T00:50:18.021Z,2.73
2023-05-19T00:53:23.008Z,2.90
2023-05-19T00:56:28.190Z,2.67
2023-05-19T00:59:32.733Z,2.42
2023-05-19T01:02:38.908Z,2.83
2023-05-19T01:05:45.570Z,2.95
2023-05-19T01:08:49.776Z,2.28
2023-05-19T01:11:54.353Z,2.88
2023-05-19T01:15:00.342Z,2.55
2023-05-19T01:18:13.245Z,2.70
2023-05-19T01:21:45.601Z,3.00
2023-05-19T01:25:08.067Z,2.38
2023-05-19T01:28:45.751Z,4.07
2023-05-19T01:31:51.321Z,3.22
2023-05-19T01:34:58.360Z,2.60
2023-05-19T01:38:04.355Z,2.50
2023-05-19T01:41:09.373Z,2.47
2023-05-19T01:47:17.633Z,2.72
2023-05-19T01:50:22.029Z,2.65
2023-05-19T01:53:27.304Z,2.40
2023-05-19T01:56:47.496Z,2.85
2023-05-19T02:00:13.648Z,2.80
2023-05-19T02:03:54.589Z,3.40
2023-05-19T02:07:18.492Z,2.90
2023-05-19T02:10:32.992Z,2.83
2023-05-19T02:13:41.884Z,2.90
2023-05-19T02:16:49.303Z,2.63
2023-05-19T02:19:54.588Z,2.53
2023-05-19T02:22:59.198Z,4.45
2023-05-19T02:26:03.775Z,2.92
2023-05-19T02:29:09.925Z,2.78
2023-05-19T02:32:14.664Z,3.57
2023-05-19T02:35:19.117Z,2.50
2023-05-19T02:38:23.190Z,2.88
2023-05-19T02:41:27.486Z,3.23
2023-05-19T02:44:31.833Z,3.25
2023-05-19T02:47:37.222Z,2.70
2023-05-19T02:50:41.486Z,2.53
2023-05-19T02:53:45.494Z,2.80
2023-05-19T02:56:49.671Z,2.90
2023-05-19T02:59:53.746Z,3.13
2023-05-19T03:03:03.440Z,3.30
2023-05-19T03:06:09.595Z,2.65
2023-05-19T03:09:17.219Z,3.30
2023-05-19T03:12:21.644Z,2.63
2023-05-19T03:15:25.721Z,3.22
2023-05-19T03:18:30.075Z,3.10
2023-05-19T03:21:35.335Z,2.60
2023-05-19T03:24:40.457Z,2.92
2023-05-19T03:27:45.065Z,3.08
2023-05-19T03:30:51.577Z,2.80
2023-05-19T03:41:40.775Z,3.72
2023-05-19T03:44:47.089Z,3.38
2023-05-19T03:47:51.398Z,2.80
2023-05-19T03:51:21.957Z,2.50
2023-05-19T03:54:28.708Z,3.00
2023-05-19T03:57:34.520Z,3.25
2023-05-19T04:00:38.711Z,2.90
2023-05-19T04:03:50.619Z,5.60
2023-05-19T04:06:55.079Z,2.88
2023-05-19T04:09:59.117Z,3.50
2023-05-19T04:13:07.968Z,3.05
2023-05-19T04:16:15.230Z,2.90
2023-05-19T04:19:19.750Z,2.92
2023-05-19T04:22:25.537Z,2.70
2023-05-19T04:25:30.073Z,3.17
2023-05-19T04:28:39.702Z,3.35
2023-05-19T04:31:47.069Z,17.58
2023-05-19T04:34:51.324Z,3.47
2023-05-19T04:38:00.909Z,3.90
2023-05-19T04:41:11.658Z,3.40
2023-05-19T04:44:18.990Z,3.10
2023-05-19T04:47:29.015Z,3.30
2023-05-19T04:53:37.738Z,2.90
2023-05-19T04:56:44.678Z,3.30
2023-05-19T04:59:48.711Z,3.10
2023-05-19T05:02:52.935Z,2.83
2023-05-19T05:05:59.540Z,3.13
2023-05-19T05:09:05.243Z,3.15
2023-05-19T05:12:10.029Z,3.10
2023-05-19T05:15:16.936Z,3.30
2023-05-19T05:18:25.268Z,2.97
2023-05-19T05:21:30.682Z,2.80
2023-05-19T05:24:35.889Z,3.10
2023-05-19T05:27:43.643Z,2.70
2023-05-19T05:30:48.096Z,2.50
2023-05-19T05:33:52.296Z,2.83
2023-05-19T05:37:00.217Z,2.92
2023-05-19T05:40:08.028Z,3.63
2023-05-19T05:43:12.960Z,3.20
2023-05-19T05:46:23.267Z,3.97
2023-05-19T05:49:27.519Z,3.23
2023-05-19T05:52:33.624Z,3.20
2023-05-19T05:55:38.183Z,3.35
2023-05-19T05:58:43.556Z,3.50
2023-05-19T06:01:47.715Z,3.20
2023-05-19T06:04:55.104Z,3.55
2023-05-19T06:07:59.508Z,4.38
2023-05-19T06:11:09.985Z,3.38
2023-05-19T06:14:16.445Z,3.38
2023-05-19T06:17:39.456Z,2.70
2023-05-19T06:20:43.570Z,2.80
2023-05-19T06:23:47.715Z,2.75
2023-05-19T06:26:52.001Z,2.63
2023-05-19T06:29:56.599Z,2.75
2023-05-19T06:33:02.542Z,3.28
2023-05-19T06:36:09.367Z,2.92
2023-05-19T06:39:15.169Z,3.15
2023-05-19T06:42:23.283Z,3.00
2023-05-19T06:45:34.911Z,3.08
2023-05-19T06:48:40.787Z,3.08
2023-05-19T06:51:45.325Z,3.58
2023-05-19T06:54:50.547Z,3.67
2023-05-19T06:57:54.877Z,2.92
2023-05-19T07:00:59.012Z,4.35
2023-05-19T07:04:07.823Z,3.60
2023-05-19T07:07:11.939Z,4.15
2023-05-19T07:10:16.804Z,6.05
2023-05-19T07:13:25.338Z,3.00
2023-05-19T07:16:31.476Z,3.00
2023-05-19T07:19:36.517Z,4.63
2023-05-19T07:22:43.424Z,4.30
2023-05-19T07:25:47.391Z,2.92
2023-05-19T07:28:52.667Z,3.28
2023-05-19T07:31:58.780Z,3.58
2023-05-19T07:35:02.835Z,3.03
2023-05-19T07:38:08.433Z,2.95
2023-05-19T07:41:12.438Z,2.75
2023-05-19T07:44:17.007Z,3.75
2023-05-19T07:47:21.906Z,3.70
2023-05-19T07:50:26.462Z,3.00
2023-05-19T07:53:30.655Z,3.55
2023-05-19T07:56:34.690Z,3.53
2023-05-19T07:59:46.170Z,3.65
2023-05-19T08:02:50.216Z,3.40
2023-05-19T08:05:54.250Z,2.50
2023-05-19T08:08:58.396Z,5.63
2023-05-19T08:12:06.276Z,6.95
2023-05-19T08:15:13.166Z,6.10
2023-05-19T08:18:22.098Z,4.60
2023-05-19T08:21:26.124Z,3.20
2023-05-19T08:24:37.074Z,4.15
2023-05-19T08:27:41.127Z,3.85
2023-05-19T08:30:45.125Z,5.38
2023-05-19T08:33:48.934Z,2.92
2023-05-19T08:36:54.300Z,3.20
2023-05-19T08:40:01.635Z,3.30
2023-05-19T08:43:07.067Z,3.10
2023-05-19T08:46:15.292Z,3.90
2023-05-19T08:49:25.805Z,4.20
2023-05-19T08:52:52.809Z,4.18
2023-05-19T08:56:10.879Z,3.65
2023-05-19T08:59:18.597Z,3.63
2023-05-19T09:02:24.647Z,3.55
2023-05-19T09:05:29.651Z,3.10
2023-05-19T09:08:34.700Z,3.90
2023-05-19T09:11:39.165Z,3.90
2023-05-19T09:14:43.601Z,5.07
2023-05-19T09:17:50.781Z,4.43
2023-05-19T09:21:05.672Z,4.97
2023-05-19T09:24:11.133Z,4.63
2023-05-19T09:27:26.037Z,4.78
2023-05-19T09:30:30.110Z,4.55
2023-05-19T09:33:42.954Z,4.97
2023-05-19T09:36:54.193Z,4.30
2023-05-19T09:39:59.320Z,5.00
2023-05-19T09:43:06.948Z,5.25
2023-05-19T09:46:14.471Z,5.32
2023-05-19T09:49:23.673Z,5.10
2023-05-19T09:52:30.954Z,5.75
2023-05-19T09:55:36.279Z,6.00
2023-05-19T10:01:51.017Z,7.13
2023-05-19T10:04:56.372Z,6.82
2023-05-19T10:08:03.747Z,8.77
2023-05-19T10:11:08.394Z,6.78
2023-05-19T10:14:13.581Z,7.53
2023-05-19T10:17:17.821Z,5.70
2023-05-19T10:20:21.761Z,7.55
2023-05-19T10:23:26.522Z,11.20
2023-05-19T10:26:32.017Z,10.20
2023-05-19T10:29:50.240Z,10.82
2023-05-19T10:32:58.031Z,11.30
2023-05-19T10:36:25.672Z,11.20
2023-05-19T10:39:34.115Z,11.90
2023-05-19T10:42:55.293Z,12.88
2023-05-19T10:45:59.551Z,18.00
2023-05-19T10:49:03.428Z,24.70
2023-05-19T10:52:27.831Z,19.05
2023-05-19T10:55:49.243Z,17.30
2023-05-19T10:58:53.933Z,8.32
2023-05-19T11:01:58.077Z,12.25
2023-05-19T11:05:17.450Z,14.50
2023-05-19T11:08:36.139Z,14.73
2023-05-19T11:11:53.944Z,13.93
2023-05-19T11:15:06.128Z,9.90
2023-05-19T11:18:16.919Z,14.55
2023-05-19T11:21:23.128Z,12.27
2023-05-19T11:24:46.967Z,11.68
2023-05-19T11:27:53.646Z,14.00
2023-05-19T11:31:00.710Z,12.60
2023-05-19T11:34:08.069Z,9.80
2023-05-19T11:37:13.125Z,13.38
2023-05-19T11:40:17.945Z,15.52
2023-05-19T11:43:25.507Z,18.15
2023-05-19T11:46:33.476Z,20.17
2023-05-19T11:49:37.530Z,19.88
2023-05-19T11:52:50.685Z,18.75
2023-05-19T11:55:55.323Z,14.82
2023-05-19T11:58:59.342Z,15.23
2023-05-19T12:02:05.065Z,12.75
2023-05-19T12:05:18.892Z,16.00
2023-05-19T12:08:23.688Z,15.55
2023-05-19T12:11:32.768Z,15.13
2023-05-19T12:14:37.069Z,12.55
2023-05-19T12:17:43.045Z,11.55
2023-05-19T12:20:47.696Z,11.98
2023-05-19T12:23:52.046Z,12.27
2023-05-19T12:27:08.131Z,11.75
2023-05-19T12:30:13.773Z,10.95
2023-05-19T12:33:18.020Z,10.68
2023-05-19T12:36:24.680Z,8.65
2023-05-19T12:39:29.657Z,7.03
2023-05-19T12:42:34.425Z,6.30
2023-05-19T12:45:40.600Z,6.63
2023-05-19T12:48:45.942Z,7.97
2023-05-19T12:51:56.233Z,11.93
2023-05-19T12:55:06.603Z,14.52
2023-05-19T12:58:12.929Z,11.35
2023-05-19T13:01:20.438Z,10.65
2023-05-19T13:04:28.469Z,8.18
2023-05-19T13:07:32.666Z,8.25
2023-05-19T13:10:40.605Z,9.40
2023-05-19T13:13:45.084Z,8.75
2023-05-19T13:16:49.130Z,8.73
2023-05-19T13:19:53.650Z,16.73
2023-05-19T13:22:58.154Z,20.57
2023-05-19T13:26:05.779Z,7.72
2023-05-19T13:29:10.625Z,8.50
2023-05-19T13:32:14.939Z,7.75
2023-05-19T13:35:19.665Z,9.30
2023-05-19T13:38:26.598Z,8.70
2023-05-19T13:41:30.671Z,8.73
2023-05-19T13:44:37.273Z,7.93
2023-05-19T13:47:41.381Z,10.23
2023-05-19T13:50:45.541Z,11.10
2023-05-19T13:53:51.291Z,12.05
2023-05-19T13:56:55.496Z,10.73
2023-05-19T14:00:02.617Z,9.95
2023-05-19T14:03:20.409Z,9.52
2023-05-19T14:06:24.373Z,10.18
2023-05-19T14:09:29.952Z,10.02
2023-05-19T14:15:51.619Z,22.23
2023-05-19T14:18:55.719Z,23.60
2023-05-19T14:22:00.009Z,23.75
2023-05-19T14:25:04.711Z,20.75
2023-05-19T14:28:11.459Z,16.50
2023-05-19T14:31:15.924Z,11.35
2023-05-19T14:34:21.932Z,13.02
2023-05-19T14:37:29.668Z,13.13
2023-05-19T14:40:34.067Z,14.40
2023-05-19T14:43:38.257Z,13.77
2023-05-19T14:46:42.380Z,14.93
2023-05-19T14:49:46.348Z,12.90
2023-05-19T14:52:53.602Z,10.35
2023-05-19T14:55:57.606Z,8.57
2023-05-19T14:59:01.706Z,9.80
2023-05-19T15:02:06.651Z,8.43
2023-05-19T15:05:12.538Z,10.15
2023-05-19T15:08:16.739Z,9.50
2023-05-19T15:11:20.836Z,8.40
2023-05-19T15:14:25.018Z,7.60
2023-05-19T15:17:29.407Z,9.65
2023-05-19T15:20:33.640Z,11.05
2023-05-19T15:23:38.930Z,8.75
2023-05-19T15:26:43.679Z,10.27
2023-05-19T15:29:48.060Z,10.50
2023-05-19T15:32:52.114Z,10.90
2023-05-19T15:35:56.299Z,9.68
2023-05-19T15:39:00.260Z,9.80
2023-05-19T15:42:04.331Z,20.63
2023-05-19T15:45:09.135Z,14.27
2023-05-19T15:48:13.317Z,10.17
2023-05-19T15:51:17.300Z,8.27
2023-05-19T15:54:21.496Z,8.55
2023-05-19T15:57:25.921Z,8.75
2023-05-19T16:00:30.092Z,8.82
2023-05-19T16:03:34.662Z,8.13
2023-05-19T16:06:39.520Z,9.00
2023-05-19T16:09:43.833Z,8.60
2023-05-19T16:12:48.014Z,8.85
2023-05-19T16:15:51.994Z,8.25
2023-05-19T16:18:56.137Z,8.45
2023-05-19T16:22:00.078Z,8.07
2023-05-19T16:25:10.699Z,8.35
2023-05-19T16:28:15.520Z,7.60
2023-05-19T16:31:19.801Z,7.07
2023-05-19T16:34:24.448Z,7.78
2023-05-19T16:37:28.568Z,7.35
2023-05-19T16:40:32.818Z,8.23
2023-05-19T16:43:37.292Z,7.90
2023-05-19T16:46:41.674Z,7.57
2023-05-19T16:49:45.921Z,7.90
2023-05-19T16:52:49.798Z,6.90
2023-05-19T16:55:53.866Z,7.22
2023-05-19T16:58:57.943Z,6.85
2023-05-19T17:02:02.256Z,5.90
2023-05-19T17:05:07.050Z,5.30
2023-05-19T17:08:13.350Z,5.93
2023-05-19T17:11:18.013Z,5.03
2023-05-19T17:14:22.670Z,4.80
2023-05-19T17:17:26.891Z,5.15
2023-05-19T17:20:31.241Z,4.57
2023-05-19T17:23:35.304Z,4.80
2023-05-19T17:26:39.761Z,4.85
2023-05-19T17:29:43.871Z,4.70
2023-05-19T17:32:48.592Z,4.63
2023-05-19T17:35:52.678Z,5.20
2023-05-19T17:38:56.887Z,5.00
2023-05-19T17:42:00.829Z,4.85
2023-05-19T17:45:08.370Z,5.38
2023-05-19T17:48:12.375Z,5.38
2023-05-19T17:51:16.651Z,4.95
2023-05-19T17:54:21.103Z,5.18
2023-05-19T17:57:27.444Z,4.82
2023-05-19T18:00:31.886Z,5.22
2023-05-19T18:03:36.668Z,5.93
2023-05-19T18:06:45.091Z,5.93
2023-05-19T18:09:52.634Z,5.18
2023-05-19T18:13:01.228Z,5.07
2023-05-19T18:16:05.562Z,5.22
2023-05-19T18:19:09.621Z,5.57
2023-05-19T18:22:15.732Z,4.82
2023-05-19T18:25:20.892Z,5.20
2023-05-19T18:28:25.486Z,5.00
2023-05-19T18:31:30.481Z,6.22
2023-05-19T18:34:35.208Z,5.60
2023-05-19T18:37:39.426Z,4.97
2023-05-19T18:40:46.804Z,5.10
2023-05-19T18:43:51.079Z,5.20
2023-05-19T18:46:55.799Z,5.30
2023-05-19T18:49:59.801Z,5.50
2023-05-19T18:53:04.553Z,4.72
2023-05-19T18:56:13.193Z,4.90
2023-05-19T18:59:17.456Z,4.55
2023-05-19T19:02:21.408Z,5.10
2023-05-19T19:05:25.525Z,5.43
2023-05-19T19:08:29.446Z,4.40
2023-05-19T19:11:34.045Z,4.95
2023-05-19T19:14:49.776Z,4.28
2023-05-19T19:17:54.497Z,4.47
2023-05-19T19:21:00.385Z,5.53
2023-05-19T19:27:08.137Z,4.40
2023-05-19T19:30:12.535Z,5.07
2023-05-19T19:33:16.620Z,4.30
2023-05-19T19:36:21.419Z,4.50
2023-05-19T19:39:25.684Z,5.10
2023-05-19T19:42:32.691Z,4.82
2023-05-19T19:45:39.764Z,3.92
2023-05-19T19:48:44.349Z,4.53
2023-05-19T19:51:48.860Z,4.45
2023-05-19T19:54:53.067Z,4.38
2023-05-19T19:57:57.321Z,4.50
2023-05-19T20:01:03.426Z,3.70
2023-05-19T20:04:07.887Z,5.28
2023-05-19T20:07:12.225Z,4.57
2023-05-19T20:10:16.614Z,4.15
2023-05-19T20:13:21.612Z,4.25
2023-05-19T20:16:49.572Z,4.43
2023-05-19T20:19:55.633Z,4.28
2023-05-19T20:23:06.368Z,4.00
2023-05-19T20:26:13.857Z,3.88
2023-05-19T20:29:38.414Z,3.63
2023-05-19T20:33:06.891Z,4.30
2023-05-19T20:36:22.482Z,4.18
2023-05-19T20:39:29.170Z,4.00
2023-05-19T20:42:41.095Z,3.83
2023-05-19T20:45:48.356Z,4.35
2023-05-19T20:49:06.470Z,4.35
2023-05-19T20:52:13.541Z,3.42
2023-05-19T20:55:21.586Z,3.70
2023-05-19T20:58:34.950Z,4.57
2023-05-19T21:01:58.843Z,4.13
2023-05-19T21:05:20.952Z,4.10
2023-05-19T21:08:28.603Z,4.22
2023-05-19T21:11:38.087Z,3.67
2023-05-19T21:14:46.580Z,4.18
2023-05-19T21:17:50.957Z,4.25
2023-05-19T21:20:55.486Z,3.45
2023-05-19T21:24:00.366Z,3.97
2023-05-19T21:27:04.512Z,3.83
2023-05-19T21:30:10.292Z,3.92
2023-05-19T21:33:14.256Z,4.18
2023-05-19T21:36:19.218Z,4.18
2023-05-19T21:39:23.148Z,3.80
2023-05-19T21:42:27.542Z,3.90
2023-05-19T21:45:31.612Z,3.22
2023-05-19T21:48:35.720Z,3.45
2023-05-19T21:51:39.596Z,3.65
2023-05-19T21:54:43.695Z,4.15
2023-05-19T21:57:47.695Z,4.10
2023-05-19T22:00:53.530Z,3.90
2023-05-19T22:03:57.502Z,4.53
2023-05-19T22:07:01.876Z,4.47
2023-05-19T22:10:06.285Z,5.93
2023-05-19T22:13:10.300Z,7.25
2023-05-19T22:16:14.430Z,6.40
2023-05-19T22:19:56.176Z,6.40
2023-05-19T22:22:53.691Z,5.72
2023-05-19T22:25:58.242Z,4.10
2023-05-19T22:29:03.663Z,4.20
2023-05-19T22:32:12.616Z,3.92
2023-05-19T22:35:16.699Z,9.30
2023-05-19T22:38:20.745Z,4.20
2023-05-19T22:41:25.077Z,3.60
2023-05-19T22:44:29.492Z,3.95
2023-05-19T22:47:33.417Z,3.78
2023-05-19T22:50:37.857Z,4.05
2023-05-19T22:53:43.325Z,4.87
2023-05-19T22:56:49.566Z,4.30
2023-05-19T22:59:53.952Z,6.05
2023-05-19T23:02:59.738Z,7.53
2023-05-19T23:06:03.689Z,6.22
2023-05-19T23:09:07.758Z,4.07
2023-05-19T23:12:11.630Z,4.20
2023-05-19T23:15:15.668Z,3.85
2023-05-19T23:18:20.553Z,3.30
2023-05-19T23:21:24.857Z,3.72
2023-05-19T23:24:28.808Z,3.70
2023-05-19T23:27:32.922Z,3.90
2023-05-19T23:30:38.723Z,4.07
2023-05-19T23:33:42.816Z,4.10
2023-05-19T23:36:46.790Z,4.28
2023-05-19T23:39:50.889Z,3.83
2023-05-19T23:42:54.748Z,5.80
2023-05-19T23:45:59.147Z,4.68
2023-05-19T23:49:03.161Z,8.20
2023-05-19T23:52:07.552Z,4.43
2023-05-19T23:55:13.726Z,5.88
2023-05-19T23:58:17.890Z,5.60
